createdAt,value
2022-11-24T00:00:56.873Z,99.99
2022-11-24T00:01:56.883Z,99.99
2022-11-24T00:02:57.035Z,99.99
2022-11-24T00:03:56.848Z,99.99
2022-11-24T00:04:56.834Z,99.99
2022-11-24T00:05:56.837Z,99.99
2022-11-24T00:06:56.827Z,99.99
2022-11-24T00:07:56.844Z,99.99
2022-11-24T00:08:56.796Z,99.99
2022-11-24T00:09:56.792Z,99.99
2022-11-24T00:10:56.767Z,99.99
2022-11-24T00:11:56.761Z,99.99
2022-11-24T00:12:56.745Z,99.99
2022-11-24T00:13:56.740Z,99.99
2022-11-24T00:14:56.738Z,99.99
2022-11-24T00:15:56.722Z,99.99
2022-11-24T00:16:56.809Z,99.99
2022-11-24T00:17:56.697Z,99.99
2022-11-24T00:18:56.684Z,99.99
2022-11-24T00:19:56.689Z,99.99
2022-11-24T00:20:56.688Z,99.99
2022-11-24T00:21:56.659Z,99.99
2022-11-24T00:22:56.644Z,99.99
2022-11-24T00:23:56.644Z,99.99
2022-11-24T00:24:56.630Z,99.99
2022-11-24T00:25:56.621Z,99.99
2022-11-24T00:26:56.626Z,99.99
2022-11-24T00:27:56.598Z,99.99
2022-11-24T00:28:56.581Z,99.99
2022-11-24T00:29:56.573Z,99.99
2022-11-24T00:30:56.595Z,99.99
2022-11-24T00:31:56.572Z,99.99
2022-11-24T00:32:56.539Z,99.99
2022-11-24T00:33:56.531Z,99.99
2022-11-24T00:34:56.549Z,99.99
2022-11-24T00:35:56.507Z,99.99
2022-11-24T00:36:56.507Z,99.99
2022-11-24T00:37:56.496Z,99.99
2022-11-24T00:38:56.475Z,99.99
2022-11-24T00:39:56.479Z,99.99
2022-11-24T00:40:56.458Z,99.99
2022-11-24T00:41:56.458Z,99.99
2022-11-24T00:42:56.439Z,99.99
2022-11-24T00:43:56.444Z,99.99
2022-11-24T00:44:56.425Z,99.99
2022-11-24T00:45:56.494Z,99.99
2022-11-24T00:46:56.490Z,99.99
2022-11-24T00:47:56.397Z,99.99
2022-11-24T00:48:56.379Z,99.99
2022-11-24T00:49:56.373Z,99.99
2022-11-24T00:50:56.356Z,99.99
2022-11-24T00:51:56.347Z,99.99
2022-11-24T00:52:56.327Z,99.99
2022-11-24T00:53:56.346Z,99.99
2022-11-24T00:54:56.318Z,99.99
2022-11-24T00:55:56.296Z,99.99
2022-11-24T00:56:56.280Z,99.99
2022-11-24T00:57:56.284Z,99.99
2022-11-24T00:58:56.278Z,99.99
2022-11-24T00:59:56.258Z,99.99
2022-11-24T01:00:56.271Z,99.99
2022-11-24T01:01:56.295Z,99.99
2022-11-24T01:02:56.285Z,99.99
2022-11-24T01:03:56.236Z,99.99
2022-11-24T01:04:56.199Z,99.99
2022-11-24T01:05:56.191Z,99.99
2022-11-24T01:06:56.188Z,99.99
2022-11-24T01:07:56.232Z,99.99
2022-11-24T01:08:56.169Z,99.99
2022-11-24T01:09:56.156Z,99.99
2022-11-24T01:10:56.136Z,99.99
2022-11-24T01:11:56.144Z,99.99
2022-11-24T01:12:56.120Z,99.99
2022-11-24T01:13:56.125Z,99.99
2022-11-24T01:14:56.108Z,99.99
2022-11-24T01:15:56.208Z,99.99
2022-11-24T01:16:56.078Z,99.99
2022-11-24T01:17:56.069Z,99.99
2022-11-24T01:18:56.045Z,99.99
2022-11-24T01:19:56.043Z,99.99
2022-11-24T01:20:56.044Z,99.99
2022-11-24T01:21:56.026Z,99.99
2022-11-24T01:22:56.039Z,99.99
2022-11-24T01:23:55.995Z,99.99
2022-11-24T01:24:56.009Z,99.99
2022-11-24T01:25:55.981Z,99.99
2022-11-24T01:26:55.964Z,99.99
2022-11-24T01:27:55.955Z,99.99
2022-11-24T01:28:55.953Z,99.99
2022-11-24T01:29:55.936Z,99.99
2022-11-24T01:30:55.973Z,99.99
2022-11-24T01:31:55.929Z,99.99
2022-11-24T01:32:55.901Z,99.99
2022-11-24T01:33:55.918Z,99.99
2022-11-24T01:34:55.899Z,99.99
2022-11-24T01:35:55.870Z,99.99
2022-11-24T01:36:55.875Z,99.99
2022-11-24T01:37:55.849Z,99.99
2022-11-24T01:38:55.837Z,99.99
2022-11-24T01:39:55.833Z,99.99
2022-11-24T01:40:55.816Z,99.99
2022-11-24T01:41:55.808Z,99.99
2022-11-24T01:42:55.814Z,99.99
2022-11-24T01:43:55.802Z,99.99
2022-11-24T01:44:55.771Z,99.99
2022-11-24T01:45:55.833Z,99.99
2022-11-24T01:47:02.247Z,99.99
2022-11-24T01:47:55.741Z,99.99
2022-11-24T01:48:55.725Z,99.99
2022-11-24T01:49:55.718Z,99.99
2022-11-24T01:50:55.706Z,99.99
2022-11-24T01:51:55.716Z,99.99
2022-11-24T01:52:55.700Z,99.99
2022-11-24T01:53:55.699Z,99.99
2022-11-24T01:54:55.664Z,99.99
2022-11-24T01:55:55.658Z,99.99
2022-11-24T01:56:55.647Z,99.99
2022-11-24T01:57:55.653Z,99.99
2022-11-24T01:58:55.622Z,99.99
2022-11-24T01:59:55.619Z,99.99
2022-11-24T02:00:55.602Z,99.99
2022-11-24T02:01:55.624Z,99.99
2022-11-24T02:02:55.623Z,99.99
2022-11-24T02:03:55.583Z,99.99
2022-11-24T02:04:55.570Z,99.99
2022-11-24T02:05:55.555Z,99.99
2022-11-24T02:06:55.537Z,99.99
2022-11-24T02:07:55.602Z,99.99
2022-11-24T02:08:55.540Z,99.99
2022-11-24T02:09:55.510Z,99.99
2022-11-24T02:10:55.502Z,99.99
2022-11-24T02:13:22.569Z,99.99
2022-11-24T02:13:27.584Z,99.99
2022-11-24T02:14:27.586Z,99.99
2022-11-24T02:15:27.553Z,99.99
2022-11-24T02:16:27.559Z,99.99
2022-11-24T02:17:27.533Z,99.99
2022-11-24T02:18:27.520Z,99.99
2022-11-24T02:19:27.535Z,99.99
2022-11-24T02:20:27.513Z,99.99
2022-11-24T02:21:27.494Z,99.99
2022-11-24T02:22:27.485Z,99.99
2022-11-24T02:23:27.471Z,99.99
2022-11-24T02:24:27.464Z,99.99
2022-11-24T02:25:27.461Z,99.99
2022-11-24T02:26:27.445Z,99.99
2022-11-24T02:27:27.428Z,99.99
2022-11-24T02:28:27.425Z,99.99
2022-11-24T02:29:27.420Z,99.99
2022-11-24T02:30:27.406Z,99.99
2022-11-24T02:31:27.447Z,99.99
2022-11-24T02:32:27.409Z,99.99
2022-11-24T02:33:27.366Z,99.99
2022-11-24T02:34:27.353Z,99.99
2022-11-24T02:35:27.348Z,99.99
2022-11-24T02:36:27.343Z,99.99
2022-11-24T02:37:27.337Z,99.99
2022-11-24T02:38:27.311Z,99.99
2022-11-24T02:39:27.307Z,99.99
2022-11-24T02:40:27.291Z,99.99
2022-11-24T02:41:27.299Z,99.99
2022-11-24T02:42:27.283Z,99.99
2022-11-24T02:43:27.270Z,99.99
2022-11-24T02:44:27.247Z,99.99
2022-11-24T02:45:27.265Z,99.99
2022-11-24T02:46:27.267Z,99.99
2022-11-24T02:47:27.227Z,99.99
2022-11-24T02:48:27.214Z,99.99
2022-11-24T02:49:27.203Z,99.99
2022-11-24T02:50:27.200Z,99.99
2022-11-24T02:51:27.187Z,99.99
2022-11-24T02:52:27.173Z,99.99
2022-11-24T02:53:27.166Z,99.99
2022-11-24T02:54:27.139Z,99.99
2022-11-24T02:55:27.147Z,99.99
2022-11-24T02:56:27.117Z,99.99
2022-11-24T02:57:27.118Z,99.99
2022-11-24T02:58:27.095Z,99.99
2022-11-24T02:59:27.100Z,99.99
2022-11-24T03:00:27.080Z,99.99
2022-11-24T03:01:27.151Z,99.99
2022-11-24T03:02:27.139Z,99.99
2022-11-24T03:03:27.045Z,99.99
2022-11-24T03:04:27.053Z,99.99
2022-11-24T03:05:27.027Z,99.99
2022-11-24T03:06:27.018Z,99.99
2022-11-24T03:07:27.035Z,99.99
2022-11-24T03:08:26.989Z,99.99
2022-11-24T03:09:26.991Z,99.99
2022-11-24T03:10:27.000Z,99.99
2022-11-24T03:11:26.966Z,99.99
2022-11-24T03:12:26.954Z,99.99
2022-11-24T03:13:26.943Z,99.99
2022-11-24T03:14:26.940Z,99.99
2022-11-24T03:15:26.919Z,99.99
2022-11-24T03:16:26.977Z,99.99
2022-11-24T03:17:26.902Z,99.99
2022-11-24T03:18:26.886Z,99.99
2022-11-24T03:19:26.879Z,99.99
2022-11-24T03:20:26.864Z,99.99
2022-11-24T03:21:26.858Z,99.99
2022-11-24T03:22:26.859Z,99.99
2022-11-24T03:23:26.841Z,99.99
2022-11-24T03:24:26.829Z,99.99
2022-11-24T03:25:26.828Z,99.99
2022-11-24T03:26:26.835Z,99.99
2022-11-24T03:27:26.805Z,99.99
2022-11-24T03:28:26.804Z,99.99
2022-11-24T03:29:25.770Z,99.99
2022-11-24T03:30:26.758Z,99.99
2022-11-24T03:31:26.810Z,99.99
2022-11-24T03:32:26.744Z,99.99
2022-11-24T03:33:26.739Z,99.99
2022-11-24T03:34:26.729Z,99.99
2022-11-24T03:35:26.713Z,99.99
2022-11-24T03:36:26.714Z,99.99
2022-11-24T03:37:26.717Z,99.99
2022-11-24T03:38:26.693Z,99.99
2022-11-24T03:39:26.684Z,99.99
2022-11-24T03:40:26.696Z,99.99
2022-11-24T03:41:26.649Z,99.99
2022-11-24T03:42:26.657Z,99.99
2022-11-24T03:43:26.635Z,99.99
2022-11-24T03:44:26.637Z,99.99
2022-11-24T03:46:25.623Z,99.99
2022-11-24T03:47:26.595Z,99.99
2022-11-24T03:48:26.572Z,99.99
2022-11-24T03:49:26.565Z,99.99
2022-11-24T03:50:26.574Z,99.99
2022-11-24T03:51:26.542Z,99.99
2022-11-24T03:52:26.530Z,99.99
2022-11-24T03:53:26.537Z,99.99
2022-11-24T03:54:26.501Z,99.99
2022-11-24T03:55:26.509Z,99.99
2022-11-24T03:56:26.517Z,99.99
2022-11-24T03:57:26.476Z,99.94
2022-11-24T03:58:26.492Z,99.84
2022-11-24T03:59:26.475Z,99.94
2022-11-24T04:00:26.441Z,99.63
2022-11-24T04:01:26.501Z,99.52
2022-11-24T04:02:26.488Z,99.52
2022-11-24T04:03:26.416Z,99.32
2022-11-24T04:04:26.396Z,99.32
2022-11-24T04:05:26.407Z,99.63
2022-11-24T04:06:26.393Z,99.94
2022-11-24T04:07:26.438Z,99.99
2022-11-24T04:08:26.359Z,99.99
2022-11-24T04:09:26.352Z,99.99
2022-11-24T04:10:26.333Z,99.73
2022-11-24T04:11:26.347Z,99.94
2022-11-24T04:12:26.326Z,99.94
2022-11-24T04:13:26.320Z,99.99
2022-11-24T04:14:26.295Z,99.99
2022-11-24T04:15:26.317Z,99.99
2022-11-24T04:16:26.346Z,99.99
2022-11-24T04:17:26.270Z,99.99
2022-11-24T04:18:26.262Z,99.99
2022-11-24T04:19:26.252Z,99.99
2022-11-24T04:20:26.230Z,99.99
2022-11-24T04:21:26.220Z,99.99
2022-11-24T04:22:26.216Z,99.99
2022-11-24T04:23:26.209Z,99.99
2022-11-24T04:24:26.199Z,99.99
2022-11-24T04:25:26.178Z,99.99
2022-11-24T04:26:26.166Z,99.99
2022-11-24T04:27:26.158Z,99.99
2022-11-24T04:28:26.160Z,99.94
2022-11-24T04:29:26.149Z,99.94
2022-11-24T04:30:26.124Z,99.99
2022-11-24T04:31:26.174Z,99.84
2022-11-24T04:32:26.103Z,99.73
2022-11-24T04:33:26.118Z,99.84
2022-11-24T04:34:26.095Z,99.99
2022-11-24T04:35:26.076Z,99.69
2022-11-24T04:36:26.062Z,99.58
2022-11-24T04:37:26.066Z,99.58
2022-11-24T04:39:23.122Z,99.38
2022-11-24T04:39:30.715Z,99.27
2022-11-24T04:40:26.034Z,99.07
2022-11-24T04:41:26.015Z,98.97
2022-11-24T04:42:26.008Z,98.97
2022-11-24T04:43:25.989Z,99.07
2022-11-24T04:44:25.980Z,98.86
2022-11-24T04:45:25.997Z,98.97
2022-11-24T04:46:25.996Z,99.07
2022-11-24T04:47:25.948Z,98.97
2022-11-24T04:48:25.937Z,98.76
2022-11-24T04:49:25.945Z,99.07
2022-11-24T04:50:25.914Z,99.07
2022-11-24T04:51:25.923Z,99.02
2022-11-24T04:52:25.897Z,99.07
2022-11-24T04:53:25.888Z,98.97
2022-11-24T04:54:25.876Z,98.92
2022-11-24T04:55:25.879Z,99.17
2022-11-24T04:56:25.866Z,99.02
2022-11-24T04:57:25.855Z,99.02
2022-11-24T04:58:25.834Z,99.02
2022-11-24T04:59:25.826Z,99.02
2022-11-24T05:00:25.810Z,98.92
2022-11-24T05:01:25.851Z,99.02
2022-11-24T05:02:25.800Z,98.92
2022-11-24T05:03:25.778Z,98.82
2022-11-24T05:04:25.812Z,98.82
2022-11-24T05:05:25.776Z,99.02
2022-11-24T05:06:25.752Z,98.92
2022-11-24T05:07:25.845Z,98.82
2022-11-24T05:08:25.729Z,98.82
2022-11-24T05:09:41.736Z,98.82
2022-11-24T05:10:25.711Z,98.71
2022-11-24T05:11:25.713Z,98.71
2022-11-24T05:12:25.699Z,98.61
2022-11-24T05:13:25.688Z,98.61
2022-11-24T05:14:25.680Z,98.50
2022-11-24T05:15:25.670Z,98.50
2022-11-24T05:16:25.745Z,98.50
2022-11-24T05:17:25.657Z,98.50
2022-11-24T05:18:25.639Z,98.41
2022-11-24T05:19:29.839Z,98.61
2022-11-24T05:20:25.620Z,98.71
2022-11-24T05:21:25.620Z,98.61
2022-11-24T05:22:25.580Z,98.50
2022-11-24T05:23:25.614Z,98.41
2022-11-24T05:24:25.559Z,98.30
2022-11-24T05:25:25.571Z,98.30
2022-11-24T05:26:25.538Z,98.20
2022-11-24T05:27:25.557Z,97.89
2022-11-24T05:28:25.516Z,97.99
2022-11-24T05:29:25.549Z,97.89
2022-11-24T05:30:25.493Z,97.99
2022-11-24T05:31:25.574Z,97.99
2022-11-24T05:32:25.483Z,97.99
2022-11-24T05:33:25.494Z,97.89
2022-11-24T05:34:25.465Z,97.78
2022-11-24T05:35:25.464Z,97.78
2022-11-24T05:36:25.439Z,97.58
2022-11-24T05:37:25.454Z,97.58
2022-11-24T05:38:25.427Z,97.68
2022-11-24T05:39:25.448Z,97.58
2022-11-24T05:40:25.403Z,97.78
2022-11-24T05:41:25.416Z,97.38
2022-11-24T05:42:25.377Z,97.48
2022-11-24T05:43:25.395Z,97.48
2022-11-24T05:44:25.364Z,97.38
2022-11-24T05:45:25.369Z,97.38
2022-11-24T05:46:25.385Z,97.38
2022-11-24T05:47:25.336Z,97.27
2022-11-24T05:48:25.312Z,97.21
2022-11-24T05:49:25.328Z,97.31
2022-11-24T05:50:25.315Z,97.31
2022-11-24T05:51:25.312Z,97.42
2022-11-24T05:52:25.270Z,97.11
2022-11-24T05:53:25.275Z,97.11
2022-11-24T05:54:25.250Z,97.01
2022-11-24T05:55:25.252Z,97.11
2022-11-24T05:56:25.263Z,97.11
2022-11-24T05:57:25.250Z,96.91
2022-11-24T05:58:25.213Z,97.01
2022-11-24T05:59:25.213Z,97.01
2022-11-24T06:00:25.186Z,97.11
2022-11-24T06:01:25.190Z,97.26
2022-11-24T06:02:25.347Z,97.47
2022-11-24T06:03:25.195Z,97.47
2022-11-24T06:04:24.136Z,97.47
2022-11-24T06:05:25.149Z,97.56
2022-11-24T06:06:25.127Z,97.67
2022-11-24T06:07:25.227Z,97.77
2022-11-24T06:08:29.680Z,97.88
2022-11-24T06:09:25.080Z,97.88
2022-11-24T06:10:25.084Z,98.19
2022-11-24T06:11:25.055Z,98.08
2022-11-24T06:12:25.000Z,98.19
2022-11-24T06:13:25.154Z,98.39
2022-11-24T06:14:25.045Z,98.39
2022-11-24T06:15:25.059Z,98.29
2022-11-24T06:16:25.051Z,98.19
2022-11-24T06:17:25.024Z,98.44
2022-11-24T06:18:25.008Z,98.44
2022-11-24T06:19:24.972Z,98.54
2022-11-24T06:20:28.494Z,98.75
2022-11-24T06:21:24.932Z,98.85
2022-11-24T06:22:24.899Z,98.96
2022-11-24T06:23:24.938Z,99.06
2022-11-24T06:24:24.877Z,99.16
2022-11-24T06:25:24.901Z,99.16
2022-11-24T06:26:24.860Z,99.31
2022-11-24T06:27:24.885Z,99.52
2022-11-24T06:28:24.840Z,99.82
2022-11-24T06:29:24.866Z,99.72
2022-11-24T06:30:24.828Z,99.82
2022-11-24T06:31:24.855Z,99.99
2022-11-24T06:32:24.800Z,99.99
2022-11-24T06:33:24.800Z,99.99
2022-11-24T06:34:24.813Z,99.99
2022-11-24T06:35:24.771Z,99.99
2022-11-24T06:36:24.768Z,99.99
2022-11-24T06:37:24.745Z,99.99
2022-11-24T06:38:24.783Z,99.99
2022-11-24T06:39:25.023Z,99.99
2022-11-24T06:40:24.729Z,99.99
2022-11-24T06:41:24.706Z,99.99
2022-11-24T06:42:24.737Z,99.99
2022-11-24T06:43:24.691Z,99.99
2022-11-24T06:44:24.684Z,99.99
2022-11-24T06:45:24.701Z,99.99
2022-11-24T06:46:24.689Z,99.99
2022-11-24T06:47:24.645Z,99.99
2022-11-24T06:48:24.646Z,99.99
2022-11-24T06:49:24.631Z,99.99
2022-11-24T06:50:26.947Z,99.99
2022-11-24T06:51:24.612Z,99.57
2022-11-24T06:52:24.633Z,99.16
2022-11-24T06:53:24.583Z,98.91
2022-11-24T06:54:24.600Z,98.80
2022-11-24T06:55:24.567Z,99.11
2022-11-24T06:56:24.578Z,98.91
2022-11-24T06:57:24.537Z,98.39
2022-11-24T06:58:24.565Z,98.08
2022-11-24T06:59:24.514Z,98.50
2022-11-24T07:00:24.519Z,98.60
2022-11-24T07:01:24.524Z,98.70
2022-11-24T07:02:24.510Z,98.70
2022-11-24T07:03:24.546Z,98.60
2022-11-24T07:04:24.488Z,98.50
2022-11-24T07:05:24.448Z,98.60
2022-11-24T07:06:24.471Z,98.70
2022-11-24T07:07:24.484Z,98.80
2022-11-24T07:08:24.459Z,98.91
2022-11-24T07:09:24.427Z,99.22
2022-11-24T07:10:24.427Z,99.43
2022-11-24T07:11:24.388Z,99.52
2022-11-24T07:12:24.415Z,99.11
2022-11-24T07:13:24.372Z,99.11
2022-11-24T07:14:24.385Z,99.32
2022-11-24T07:15:24.373Z,99.22
2022-11-24T07:16:24.415Z,99.22
2022-11-24T07:17:24.322Z,99.43
2022-11-24T07:18:24.345Z,99.22
2022-11-24T07:19:25.179Z,99.22
2022-11-24T07:20:24.319Z,99.32
2022-11-24T07:21:24.298Z,99.32
2022-11-24T07:22:24.302Z,99.43
2022-11-24T07:23:24.265Z,99.01
2022-11-24T07:24:24.282Z,98.39
2022-11-24T07:25:24.249Z,98.60
2022-11-24T07:26:24.256Z,98.29
2022-11-24T07:27:24.220Z,98.39
2022-11-24T07:28:24.251Z,98.19
2022-11-24T07:29:24.211Z,98.24
2022-11-24T07:30:24.203Z,98.35
2022-11-24T07:31:24.234Z,97.73
2022-11-24T07:32:24.200Z,97.36
2022-11-24T07:33:24.178Z,97.42
2022-11-24T07:34:24.187Z,97.21
2022-11-24T07:35:24.141Z,97.63
2022-11-24T07:36:24.161Z,97.63
2022-11-24T07:37:29.640Z,97.83
2022-11-24T07:38:24.125Z,97.31
2022-11-24T07:39:24.093Z,97.52
2022-11-24T07:40:24.116Z,97.52
2022-11-24T07:41:24.078Z,97.21
2022-11-24T07:42:24.122Z,97.01
2022-11-24T07:43:24.064Z,96.49
2022-11-24T07:44:24.057Z,96.49
2022-11-24T07:45:24.037Z,96.49
2022-11-24T07:46:24.111Z,96.18
2022-11-24T07:47:24.011Z,96.08
2022-11-24T07:48:24.035Z,95.93
2022-11-24T07:49:23.994Z,96.03
2022-11-24T07:50:24.002Z,95.52
2022-11-24T07:51:23.983Z,94.90
2022-11-24T07:52:24.002Z,95.10
2022-11-24T07:53:23.963Z,94.65
2022-11-24T07:54:23.968Z,94.55
2022-11-24T07:55:23.937Z,95.06
2022-11-24T07:56:23.948Z,93.88
2022-11-24T07:57:23.920Z,93.68
2022-11-24T07:58:26.480Z,93.16
2022-11-24T07:59:23.917Z,92.20
2022-11-24T08:00:23.907Z,92.10
2022-11-24T08:01:23.897Z,91.85
2022-11-24T08:02:23.881Z,91.44
2022-11-24T08:03:23.888Z,91.33
2022-11-24T08:04:23.877Z,90.51
2022-11-24T08:05:23.836Z,90.57
2022-11-24T08:06:27.401Z,92.11
2022-11-24T08:07:23.876Z,91.29
2022-11-24T08:08:23.806Z,90.12
2022-11-24T08:09:23.791Z,89.91
2022-11-24T08:10:23.800Z,90.12
2022-11-24T08:11:23.761Z,89.91
2022-11-24T08:12:23.766Z,88.57
2022-11-24T08:13:23.740Z,89.40
2022-11-24T08:14:23.760Z,88.98
2022-11-24T08:15:23.719Z,89.54
2022-11-24T08:16:23.796Z,89.75
2022-11-24T08:17:23.718Z,90.26
2022-11-24T08:18:23.714Z,89.75
2022-11-24T08:19:23.697Z,89.09
2022-11-24T08:20:23.700Z,88.82
2022-11-24T08:21:23.803Z,89.03
2022-11-24T08:22:23.685Z,89.54
2022-11-24T08:23:23.640Z,89.75
2022-11-24T08:24:23.645Z,89.85
2022-11-24T08:25:23.623Z,90.36
2022-11-24T08:26:23.646Z,90.36
2022-11-24T08:27:23.595Z,89.64
2022-11-24T08:28:23.596Z,89.44
2022-11-24T08:29:23.579Z,88.92
2022-11-24T08:30:23.576Z,88.72
2022-11-24T08:31:23.604Z,88.37
2022-11-24T08:32:23.607Z,88.57
2022-11-24T08:33:23.532Z,89.50
2022-11-24T08:34:23.554Z,89.60
2022-11-24T08:35:23.511Z,87.75
2022-11-24T08:36:23.537Z,87.24
2022-11-24T08:37:23.495Z,87.13
2022-11-24T08:38:23.504Z,87.24
2022-11-24T08:39:23.482Z,87.61
2022-11-24T08:40:23.605Z,88.12
2022-11-24T08:41:23.443Z,87.82
2022-11-24T08:42:23.478Z,87.20
2022-11-24T08:43:23.420Z,87.40
2022-11-24T08:44:23.454Z,86.99
2022-11-24T08:45:25.643Z,86.33
2022-11-24T08:46:23.493Z,86.44
2022-11-24T08:47:23.381Z,86.65
2022-11-24T08:48:23.395Z,86.44
2022-11-24T08:49:23.372Z,86.54
2022-11-24T08:50:23.546Z,86.24
2022-11-24T08:51:23.343Z,86.24
2022-11-24T08:52:23.345Z,85.21
2022-11-24T08:53:23.329Z,86.13
2022-11-24T08:54:23.329Z,85.21
2022-11-24T08:55:23.322Z,84.90
2022-11-24T08:56:23.307Z,85.11
2022-11-24T08:57:23.278Z,84.66
2022-11-24T08:58:23.292Z,85.06
2022-11-24T08:59:23.329Z,84.96
2022-11-24T09:00:23.334Z,85.17
2022-11-24T09:01:23.336Z,84.66
2022-11-24T09:02:23.236Z,84.76
2022-11-24T09:03:23.244Z,85.68
2022-11-24T09:04:23.268Z,85.31
2022-11-24T09:05:50.539Z,85.21
2022-11-24T09:06:23.318Z,84.80
2022-11-24T09:07:23.266Z,84.69
2022-11-24T09:08:23.213Z,85.52
2022-11-24T09:09:23.148Z,85.21
2022-11-24T09:10:23.185Z,85.21
2022-11-24T09:11:23.133Z,85.21
2022-11-24T09:12:23.145Z,85.41
2022-11-24T09:13:23.104Z,85.41
2022-11-24T09:14:23.130Z,85.21
2022-11-24T09:15:23.100Z,85.00
2022-11-24T09:16:23.152Z,85.62
2022-11-24T09:17:23.065Z,85.21
2022-11-24T09:18:27.487Z,85.00
2022-11-24T09:19:23.068Z,85.41
2022-11-24T09:20:23.061Z,85.31
2022-11-24T09:21:23.033Z,85.00
2022-11-24T09:22:23.053Z,85.21
2022-11-24T09:23:23.010Z,85.52
2022-11-24T09:24:23.017Z,85.62
2022-11-24T09:25:22.996Z,85.41
2022-11-24T09:26:23.011Z,85.46
2022-11-24T09:27:22.971Z,86.58
2022-11-24T09:28:22.968Z,87.10
2022-11-24T09:29:22.948Z,86.27
2022-11-24T09:30:22.968Z,86.79
2022-11-24T09:31:23.046Z,86.89
2022-11-24T09:32:22.949Z,87.20
2022-11-24T09:33:22.892Z,86.38
2022-11-24T09:34:22.912Z,86.48
2022-11-24T09:35:22.870Z,86.89
2022-11-24T09:36:22.912Z,86.58
2022-11-24T09:37:24.280Z,87.10
2022-11-24T09:38:22.858Z,87.55
2022-11-24T09:39:22.829Z,87.85
2022-11-24T09:40:22.872Z,88.17
2022-11-24T09:41:22.816Z,88.57
2022-11-24T09:42:22.852Z,88.89
2022-11-24T09:43:22.796Z,88.78
2022-11-24T09:44:22.797Z,88.98
2022-11-24T09:45:41.739Z,88.89
2022-11-24T09:46:22.790Z,89.19
2022-11-24T09:47:22.751Z,89.29
2022-11-24T09:48:22.770Z,89.81
2022-11-24T09:49:22.726Z,89.19
2022-11-24T09:50:22.768Z,89.91
2022-11-24T09:51:22.705Z,90.12
2022-11-24T09:52:22.758Z,89.60
2022-11-24T09:53:22.683Z,89.29
2022-11-24T09:54:22.811Z,89.40
2022-11-24T09:55:22.663Z,89.50
2022-11-24T09:56:22.673Z,89.29
2022-11-24T09:57:22.646Z,89.50
2022-11-24T09:58:22.658Z,88.89
2022-11-24T09:59:22.641Z,88.89
2022-11-24T10:00:22.633Z,89.70
2022-11-24T10:01:22.687Z,89.40
2022-11-24T10:02:22.628Z,88.89
2022-11-24T10:03:22.577Z,89.50
2022-11-24T10:04:22.632Z,89.50
2022-11-24T10:05:22.564Z,89.36
2022-11-24T10:06:22.574Z,89.36
2022-11-24T10:07:22.613Z,88.84
2022-11-24T10:08:22.571Z,89.19
2022-11-24T10:09:22.519Z,89.76
2022-11-24T10:10:25.068Z,89.76
2022-11-24T10:11:22.490Z,88.68
2022-11-24T10:12:22.502Z,89.40
2022-11-24T10:13:22.474Z,90.01
2022-11-24T10:14:22.494Z,90.42
2022-11-24T10:15:22.467Z,90.63
2022-11-24T10:16:22.554Z,91.19
2022-11-24T10:17:22.430Z,92.11
2022-11-24T10:18:22.443Z,92.21
2022-11-24T10:19:22.414Z,92.73
2022-11-24T10:20:22.421Z,92.46
2022-11-24T10:21:22.415Z,93.59
2022-11-24T10:22:22.403Z,94.52
2022-11-24T10:23:22.364Z,95.08
2022-11-24T10:24:22.395Z,94.67
2022-11-24T10:25:22.350Z,95.28
2022-11-24T10:26:22.360Z,95.39
2022-11-24T10:27:22.322Z,95.80
2022-11-24T10:28:22.334Z,96.25
2022-11-24T10:29:22.311Z,96.25
2022-11-24T10:30:22.303Z,96.88
2022-11-24T10:31:22.318Z,96.15
2022-11-24T10:32:22.305Z,95.53
2022-11-24T10:33:27.127Z,96.46
2022-11-24T10:34:22.291Z,96.97
2022-11-24T10:35:22.262Z,97.08
2022-11-24T10:36:22.263Z,97.60
2022-11-24T10:37:22.266Z,97.39
2022-11-24T10:38:22.228Z,97.28
2022-11-24T10:39:22.199Z,97.85
2022-11-24T10:40:48.731Z,98.52
2022-11-24T10:41:22.192Z,98.77
2022-11-24T10:42:22.194Z,98.46
2022-11-24T10:43:22.184Z,98.15
2022-11-24T10:44:22.162Z,98.15
2022-11-24T10:45:22.154Z,98.36
2022-11-24T10:46:22.191Z,99.08
2022-11-24T10:47:22.113Z,98.57
2022-11-24T10:48:22.193Z,98.97
2022-11-24T10:49:22.093Z,99.29
2022-11-24T10:50:22.093Z,98.97
2022-11-24T10:51:22.119Z,98.88
2022-11-24T10:52:22.061Z,98.97
2022-11-24T10:53:22.079Z,99.39
2022-11-24T10:54:22.062Z,99.39
2022-11-24T10:55:22.055Z,99.29
2022-11-24T10:56:22.060Z,99.18
2022-11-24T10:57:22.039Z,99.49
2022-11-24T10:58:22.017Z,99.49
2022-11-24T10:59:22.051Z,99.80
2022-11-24T11:00:21.985Z,99.70
2022-11-24T11:01:22.059Z,99.39
2022-11-24T11:02:22.010Z,99.29
2022-11-24T11:03:21.975Z,99.18
2022-11-24T11:04:21.967Z,99.60
2022-11-24T11:05:21.964Z,99.60
2022-11-24T11:06:21.918Z,99.80
2022-11-24T11:07:21.994Z,99.49
2022-11-24T11:08:21.906Z,99.39
2022-11-24T11:09:21.932Z,99.29
2022-11-24T11:10:21.882Z,99.04
2022-11-24T11:11:21.913Z,99.14
2022-11-24T11:12:42.668Z,99.34
2022-11-24T11:13:21.884Z,99.04
2022-11-24T11:14:21.843Z,98.93
2022-11-24T11:15:21.838Z,99.65
2022-11-24T11:16:21.847Z,99.34
2022-11-24T11:17:21.815Z,99.24
2022-11-24T11:18:21.808Z,98.93
2022-11-24T11:19:47.283Z,98.62
2022-11-24T11:20:21.784Z,98.93
2022-11-24T11:21:21.833Z,99.24
2022-11-24T11:22:21.747Z,99.09
2022-11-24T11:23:21.771Z,98.68
2022-11-24T11:24:21.748Z,98.58
2022-11-24T11:25:21.782Z,98.06
2022-11-24T11:26:21.710Z,97.65
2022-11-24T11:27:21.912Z,97.30
2022-11-24T11:28:21.689Z,97.19
2022-11-24T11:31:22.171Z,97.30
2022-11-24T11:34:25.258Z,96.78
2022-11-24T11:35:21.675Z,97.19
2022-11-24T11:36:21.615Z,96.37
2022-11-24T11:37:21.608Z,96.33
2022-11-24T11:38:21.587Z,96.73
2022-11-24T11:39:21.608Z,96.12
2022-11-24T11:40:21.566Z,96.08
2022-11-24T11:41:21.905Z,95.67
2022-11-24T11:42:53.681Z,95.52
2022-11-24T11:43:21.567Z,94.08
2022-11-24T11:44:21.584Z,93.73
2022-11-24T11:45:21.574Z,92.70
2022-11-24T11:46:21.769Z,93.99
2022-11-24T11:47:21.596Z,92.76
2022-11-24T11:48:21.950Z,92.86
2022-11-24T11:49:21.489Z,92.76
2022-11-24T11:50:21.475Z,92.35
2022-11-24T11:51:23.961Z,90.81
2022-11-24T11:52:21.434Z,91.94
2022-11-24T11:53:21.449Z,92.70
2022-11-24T11:54:21.411Z,93.21
2022-11-24T11:55:21.477Z,92.60
2022-11-24T11:56:21.403Z,91.78
2022-11-24T11:57:21.425Z,91.88
2022-11-24T11:58:21.393Z,92.64
2022-11-24T11:59:21.388Z,92.23
2022-11-24T12:00:21.378Z,92.23
2022-11-24T12:01:21.372Z,91.20
2022-11-24T12:02:21.544Z,92.13
2022-11-24T12:03:21.455Z,93.26
2022-11-24T12:04:21.344Z,92.85
2022-11-24T12:05:21.328Z,93.16
2022-11-24T12:06:21.314Z,93.36
2022-11-24T12:07:21.398Z,93.77
2022-11-24T12:08:21.859Z,91.41
2022-11-24T12:09:21.533Z,92.44
2022-11-24T12:10:21.244Z,92.13
2022-11-24T12:11:21.260Z,91.27
2022-11-24T12:12:21.232Z,91.67
2022-11-24T12:13:21.245Z,90.40
2022-11-24T12:14:21.208Z,89.58
2022-11-24T12:15:21.217Z,90.09
2022-11-24T12:16:21.238Z,90.56
2022-11-24T12:17:21.250Z,88.31
2022-11-24T12:18:55.141Z,87.59
2022-11-24T12:19:21.304Z,87.08
2022-11-24T12:20:21.140Z,86.58
2022-11-24T12:21:26.194Z,87.06
2022-11-24T12:22:21.135Z,85.79
2022-11-24T12:23:21.155Z,83.84
2022-11-24T12:24:21.114Z,84.42
2022-11-24T12:25:21.132Z,83.81
2022-11-24T12:26:21.073Z,84.11
2022-11-24T12:27:23.108Z,83.74
2022-11-24T12:28:21.075Z,85.01
2022-11-24T12:29:21.110Z,86.04
2022-11-24T12:30:21.046Z,84.15
2022-11-24T12:31:21.082Z,84.15
2022-11-24T12:32:21.438Z,84.60
2022-11-24T12:33:21.014Z,85.05
2022-11-24T12:34:21.023Z,85.97
2022-11-24T12:35:21.009Z,85.52
2022-11-24T12:36:20.064Z,84.52
2022-11-24T12:37:20.983Z,82.98
2022-11-24T12:38:20.961Z,82.51
2022-11-24T12:39:20.984Z,82.51
2022-11-24T12:40:20.924Z,82.27
2022-11-24T12:42:19.971Z,82.03
2022-11-24T12:43:20.918Z,81.21
2022-11-24T12:44:20.946Z,82.68
2022-11-24T12:45:20.954Z,82.82
2022-11-24T12:46:20.944Z,83.44
2022-11-24T12:47:20.913Z,84.91
2022-11-24T12:48:20.835Z,85.01
2022-11-24T12:49:20.847Z,84.91
2022-11-24T12:50:21.199Z,86.44
2022-11-24T12:51:20.821Z,84.09
2022-11-24T12:52:20.899Z,84.19
2022-11-24T12:53:20.810Z,84.60
2022-11-24T12:54:20.794Z,83.00
2022-11-24T12:55:20.812Z,84.17
2022-11-24T12:56:20.754Z,85.71
2022-11-24T12:57:21.004Z,85.39
2022-11-24T12:58:20.731Z,86.01
2022-11-24T12:59:20.757Z,85.54